sensor_id;sensor_type;location;lat;lon;timestamp;pressure;altitude;pressure_sealevel;temperature;humidity
76297;BME280;65104;52.994;6.552;2023-02-03T00:01:20;102069.94;;;8.07;85.97
76297;BME280;65104;52.994;6.552;2023-02-03T00:03:47;102077.06;;;8.13;85.24
76297;BME280;65104;52.994;6.552;2023-02-03T00:06:12;102076.31;;;8.15;84.74
76297;BME280;65104;52.994;6.552;2023-02-03T00:08:38;102084.41;;;8.07;85.55
76297;BME280;65104;52.994;6.552;2023-02-03T00:11:04;102080.09;;;8.06;85.70
76297;BME280;65104;52.994;6.552;2023-02-03T00:13:29;102084.13;;;8.01;85.50
76297;BME280;65104;52.994;6.552;2023-02-03T00:15:55;102077.63;;;8.07;84.70
76297;BME280;65104;52.994;6.552;2023-02-03T00:18:20;102080.94;;;8.05;84.99
76297;BME280;65104;52.994;6.552;2023-02-03T00:20:46;102067.03;;;8.00;85.42
76297;BME280;65104;52.994;6.552;2023-02-03T00:23:11;102075.50;;;7.99;85.14
76297;BME280;65104;52.994;6.552;2023-02-03T00:25:37;102071.13;;;7.96;85.46
76297;BME280;65104;52.994;6.552;2023-02-03T00:28:03;102078.84;;;7.98;85.34
76297;BME280;65104;52.994;6.552;2023-02-03T00:30:29;102082.16;;;7.95;85.82
76297;BME280;65104;52.994;6.552;2023-02-03T00:32:55;102073.59;;;7.95;85.31
76297;BME280;65104;52.994;6.552;2023-02-03T00:35:21;102071.84;;;7.94;84.99
76297;BME280;65104;52.994;6.552;2023-02-03T00:37:50;102075.19;;;7.93;85.49
76297;BME280;65104;52.994;6.552;2023-02-03T00:40:17;102084.41;;;7.89;85.37
76297;BME280;65104;52.994;6.552;2023-02-03T00:42:42;102082.00;;;7.92;85.54
76297;BME280;65104;52.994;6.552;2023-02-03T00:45:08;102068.16;;;7.88;85.51
76297;BME280;65104;52.994;6.552;2023-02-03T00:47:33;102075.03;;;7.89;85.47
76297;BME280;65104;52.994;6.552;2023-02-03T00:49:59;102048.47;;;7.86;85.95
76297;BME280;65104;52.994;6.552;2023-02-03T00:52:24;102035.59;;;7.84;85.98
76297;BME280;65104;52.994;6.552;2023-02-03T00:54:49;102043.28;;;7.84;86.07
76297;BME280;65104;52.994;6.552;2023-02-03T00:57:15;102045.66;;;7.81;86.48
76297;BME280;65104;52.994;6.552;2023-02-03T00:59:40;102033.16;;;7.87;85.39
76297;BME280;65104;52.994;6.552;2023-02-03T01:02:05;102037.34;;;7.85;86.15
76297;BME280;65104;52.994;6.552;2023-02-03T01:04:31;102024.69;;;7.88;85.94
76297;BME280;65104;52.994;6.552;2023-02-03T01:06:56;102033.91;;;7.85;85.88
76297;BME280;65104;52.994;6.552;2023-02-03T01:09:24;102026.81;;;7.79;86.78
76297;BME280;65104;52.994;6.552;2023-02-03T01:11:49;102029.59;;;7.84;86.41
76297;BME280;65104;52.994;6.552;2023-02-03T01:14:15;102011.78;;;7.85;86.40
76297;BME280;65104;52.994;6.552;2023-02-03T01:16:40;102023.91;;;7.89;86.17
76297;BME280;65104;52.994;6.552;2023-02-03T01:19:06;102011.91;;;7.88;85.85
76297;BME280;65104;52.994;6.552;2023-02-03T01:21:32;102022.53;;;7.78;86.58
76297;BME280;65104;52.994;6.552;2023-02-03T01:23:58;102023.78;;;7.86;86.45
76297;BME280;65104;52.994;6.552;2023-02-03T01:26:24;102025.28;;;7.83;86.99
76297;BME280;65104;52.994;6.552;2023-02-03T01:28:54;102007.31;;;7.81;86.41
76297;BME280;65104;52.994;6.552;2023-02-03T01:31:28;101999.63;;;7.81;86.73
76297;BME280;65104;52.994;6.552;2023-02-03T01:33:54;101993.53;;;7.78;87.21
76297;BME280;65104;52.994;6.552;2023-02-03T01:36:23;102010.03;;;7.84;86.23
76297;BME280;65104;52.994;6.552;2023-02-03T01:38:48;102024.66;;;7.87;85.93
76297;BME280;65104;52.994;6.552;2023-02-03T01:41:17;102034.88;;;7.87;86.45
76297;BME280;65104;52.994;6.552;2023-02-03T01:43:45;102034.28;;;7.93;85.45
76297;BME280;65104;52.994;6.552;2023-02-03T01:46:34;102025.66;;;7.90;86.09
76297;BME280;65104;52.994;6.552;2023-02-03T01:49:11;102033.91;;;7.85;86.18
76297;BME280;65104;52.994;6.552;2023-02-03T01:51:39;102023.00;;;7.89;85.58
76297;BME280;65104;52.994;6.552;2023-02-03T01:54:12;102033.16;;;7.87;85.90
76297;BME280;65104;52.994;6.552;2023-02-03T01:56:42;102026.63;;;7.93;85.49
76297;BME280;65104;52.994;6.552;2023-02-03T01:59:08;102022.00;;;7.85;85.78
76297;BME280;65104;52.994;6.552;2023-02-03T02:01:34;101992.19;;;7.86;85.43
76297;BME280;65104;52.994;6.552;2023-02-03T02:04:02;101988.09;;;7.89;85.15
76297;BME280;65104;52.994;6.552;2023-02-03T02:06:28;101993.88;;;7.85;85.30
76297;BME280;65104;52.994;6.552;2023-02-03T02:08:56;102003.16;;;7.83;85.02
76297;BME280;65104;52.994;6.552;2023-02-03T02:11:23;102012.06;;;7.91;84.83
76297;BME280;65104;52.994;6.552;2023-02-03T02:13:50;102003.50;;;7.91;84.81
76297;BME280;65104;52.994;6.552;2023-02-03T02:38:53;101984.91;;;7.94;84.12
76297;BME280;65104;52.994;6.552;2023-02-03T02:41:27;101988.25;;;7.93;84.45
76297;BME280;65104;52.994;6.552;2023-02-03T02:46:31;101991.59;;;7.91;84.33
76297;BME280;65104;52.994;6.552;2023-02-03T02:49:07;101984.00;;;7.93;84.27
76297;BME280;65104;52.994;6.552;2023-02-03T02:51:35;101987.28;;;7.90;84.41
76297;BME280;65104;52.994;6.552;2023-02-03T02:54:03;101980.66;;;7.94;84.10
76297;BME280;65104;52.994;6.552;2023-02-03T02:56:31;101962.00;;;7.97;83.16
76297;BME280;65104;52.994;6.552;2023-02-03T02:59:00;101967.06;;;7.95;83.86
76297;BME280;65104;52.994;6.552;2023-02-03T03:01:27;101963.75;;;7.98;83.84
76297;BME280;65104;52.994;6.552;2023-02-03T03:03:52;101961.06;;;7.95;83.94
76297;BME280;65104;52.994;6.552;2023-02-03T03:06:29;101949.00;;;7.92;84.26
76297;BME280;65104;52.994;6.552;2023-02-03T03:11:29;101936.22;;;7.92;84.36
76297;BME280;65104;52.994;6.552;2023-02-03T03:13:56;101944.06;;;7.95;83.93
76297;BME280;65104;52.994;6.552;2023-02-03T03:16:24;101953.91;;;7.87;84.62
76297;BME280;65104;52.994;6.552;2023-02-03T03:21:26;101942.88;;;7.88;84.12
76297;BME280;65104;52.994;6.552;2023-02-03T03:23:58;101930.94;;;7.89;85.07
76297;BME280;65104;52.994;6.552;2023-02-03T03:29:09;101936.66;;;7.83;84.77
76297;BME280;65104;52.994;6.552;2023-02-03T03:31:36;101955.81;;;7.91;84.08
76297;BME280;65104;52.994;6.552;2023-02-03T03:34:02;101940.53;;;7.93;84.49
76297;BME280;65104;52.994;6.552;2023-02-03T03:36:31;101949.72;;;7.89;84.41
76297;BME280;65104;52.994;6.552;2023-02-03T03:44:33;101947.25;;;7.91;85.03
76297;BME280;65104;52.994;6.552;2023-02-03T03:50:09;101937.25;;;7.96;84.25
76297;BME280;65104;52.994;6.552;2023-02-03T03:52:36;101933.03;;;7.96;84.68
76297;BME280;65104;52.994;6.552;2023-02-03T03:55:06;101934.00;;;8.00;84.10
76297;BME280;65104;52.994;6.552;2023-02-03T03:57:44;101930.81;;;8.04;84.06
76297;BME280;65104;52.994;6.552;2023-02-03T04:00:14;101932.16;;;8.15;83.35
76297;BME280;65104;52.994;6.552;2023-02-03T04:02:44;101923.34;;;8.08;83.68
76297;BME280;65104;52.994;6.552;2023-02-03T04:05:11;101941.47;;;8.13;83.68
76297;BME280;65104;52.994;6.552;2023-02-03T04:07:40;101944.94;;;8.15;83.50
76297;BME280;65104;52.994;6.552;2023-02-03T04:10:21;101957.88;;;8.18;83.34
76297;BME280;65104;52.994;6.552;2023-02-03T04:12:49;101951.97;;;8.19;83.65
76297;BME280;65104;52.994;6.552;2023-02-03T04:15:15;101939.97;;;8.18;83.28
76297;BME280;65104;52.994;6.552;2023-02-03T04:17:40;101935.28;;;8.27;83.10
76297;BME280;65104;52.994;6.552;2023-02-03T04:20:06;101932.47;;;8.21;82.96
76297;BME280;65104;52.994;6.552;2023-02-03T04:22:31;101934.22;;;8.22;83.58
76297;BME280;65104;52.994;6.552;2023-02-03T04:24:56;101942.81;;;8.24;83.03
76297;BME280;65104;52.994;6.552;2023-02-03T04:27:24;101936.16;;;8.27;82.67
76297;BME280;65104;52.994;6.552;2023-02-03T04:29:50;101940.22;;;8.22;83.45
76297;BME280;65104;52.994;6.552;2023-02-03T04:32:15;101935.09;;;8.22;83.90
76297;BME280;65104;52.994;6.552;2023-02-03T04:34:41;101917.91;;;8.20;83.93
76297;BME280;65104;52.994;6.552;2023-02-03T04:37:06;101911.56;;;8.12;84.51
76297;BME280;65104;52.994;6.552;2023-02-03T04:39:32;101926.91;;;8.12;84.10
76297;BME280;65104;52.994;6.552;2023-02-03T04:41:57;101937.81;;;8.08;84.82
76297;BME280;65104;52.994;6.552;2023-02-03T04:44:22;101935.59;;;8.15;83.50
76297;BME280;65104;52.994;6.552;2023-02-03T04:46:48;101932.84;;;8.11;84.38
76297;BME280;65104;52.994;6.552;2023-02-03T04:49:13;101939.56;;;8.09;84.12
76297;BME280;65104;52.994;6.552;2023-02-03T04:51:38;101924.06;;;8.06;84.13
76297;BME280;65104;52.994;6.552;2023-02-03T04:54:04;101935.25;;;8.08;84.17
76297;BME280;65104;52.994;6.552;2023-02-03T04:56:29;101945.19;;;8.02;85.06
76297;BME280;65104;52.994;6.552;2023-02-03T04:58:55;101931.97;;;8.10;84.52
76297;BME280;65104;52.994;6.552;2023-02-03T05:01:20;101937.88;;;8.09;85.03
76297;BME280;65104;52.994;6.552;2023-02-03T05:03:45;101935.47;;;8.12;83.92
76297;BME280;65104;52.994;6.552;2023-02-03T05:06:11;101933.41;;;8.05;84.74
76297;BME280;65104;52.994;6.552;2023-02-03T05:08:36;101947.91;;;8.05;84.81
76297;BME280;65104;52.994;6.552;2023-02-03T05:11:01;101943.06;;;8.11;84.62
76297;BME280;65104;52.994;6.552;2023-02-03T05:13:27;101955.72;;;8.08;84.26
76297;BME280;65104;52.994;6.552;2023-02-03T05:15:52;101950.31;;;8.02;85.19
76297;BME280;65104;52.994;6.552;2023-02-03T05:18:17;101942.84;;;8.06;84.91
76297;BME280;65104;52.994;6.552;2023-02-03T05:20:43;101944.81;;;8.12;84.46
76297;BME280;65104;52.994;6.552;2023-02-03T05:23:08;101953.94;;;8.07;84.92
76297;BME280;65104;52.994;6.552;2023-02-03T05:25:34;101950.75;;;8.11;84.67
76297;BME280;65104;52.994;6.552;2023-02-03T05:27:59;101940.50;;;8.11;85.09
76297;BME280;65104;52.994;6.552;2023-02-03T05:30:24;101946.78;;;8.17;84.98
76297;BME280;65104;52.994;6.552;2023-02-03T05:32:50;101939.91;;;8.16;85.00
76297;BME280;65104;52.994;6.552;2023-02-03T05:35:15;101952.69;;;8.16;85.01
76297;BME280;65104;52.994;6.552;2023-02-03T05:37:43;101949.94;;;8.12;84.42
76297;BME280;65104;52.994;6.552;2023-02-03T05:40:10;101929.03;;;8.20;84.20
76297;BME280;65104;52.994;6.552;2023-02-03T05:42:54;101934.59;;;8.12;85.35
76297;BME280;65104;52.994;6.552;2023-02-03T05:45:20;101936.78;;;8.22;84.63
76297;BME280;65104;52.994;6.552;2023-02-03T05:47:45;101926.38;;;8.19;84.83
76297;BME280;65104;52.994;6.552;2023-02-03T05:50:10;101931.34;;;8.16;84.70
76297;BME280;65104;52.994;6.552;2023-02-03T05:52:36;101932.16;;;8.15;85.08
76297;BME280;65104;52.994;6.552;2023-02-03T05:55:02;101930.78;;;8.21;84.73
76297;BME280;65104;52.994;6.552;2023-02-03T05:57:27;101931.69;;;8.23;84.78
76297;BME280;65104;52.994;6.552;2023-02-03T05:59:52;101912.00;;;8.21;84.88
76297;BME280;65104;52.994;6.552;2023-02-03T06:02:18;101926.88;;;8.29;84.53
76297;BME280;65104;52.994;6.552;2023-02-03T06:04:43;101923.44;;;8.29;84.44
76297;BME280;65104;52.994;6.552;2023-02-03T06:07:09;101937.22;;;8.31;84.61
76297;BME280;65104;52.994;6.552;2023-02-03T06:09:34;101925.94;;;8.27;85.12
76297;BME280;65104;52.994;6.552;2023-02-03T06:12:00;101917.53;;;8.30;85.27
76297;BME280;65104;52.994;6.552;2023-02-03T06:14:25;101923.28;;;8.26;85.15
76297;BME280;65104;52.994;6.552;2023-02-03T06:16:52;101933.69;;;8.29;84.75
76297;BME280;65104;52.994;6.552;2023-02-03T06:19:18;101929.44;;;8.29;85.46
76297;BME280;65104;52.994;6.552;2023-02-03T06:21:43;101926.81;;;8.28;85.17
76297;BME280;65104;52.994;6.552;2023-02-03T06:24:09;101921.88;;;8.31;85.41
76297;BME280;65104;52.994;6.552;2023-02-03T06:26:35;101928.41;;;8.26;85.90
76297;BME280;65104;52.994;6.552;2023-02-03T06:29:00;101928.34;;;8.24;85.99
76297;BME280;65104;52.994;6.552;2023-02-03T06:31:26;101921.97;;;8.34;85.35
76297;BME280;65104;52.994;6.552;2023-02-03T06:33:51;101918.53;;;8.34;85.38
76297;BME280;65104;52.994;6.552;2023-02-03T06:36:16;101921.69;;;8.28;86.11
76297;BME280;65104;52.994;6.552;2023-02-03T06:38:42;101914.66;;;8.24;86.07
76297;BME280;65104;52.994;6.552;2023-02-03T06:41:07;101902.03;;;8.27;85.41
76297;BME280;65104;52.994;6.552;2023-02-03T06:43:32;101924.25;;;8.28;85.84
76297;BME280;65104;52.994;6.552;2023-02-03T06:45:59;101917.63;;;8.32;85.49
76297;BME280;65104;52.994;6.552;2023-02-03T06:48:25;101931.91;;;8.28;85.99
76297;BME280;65104;52.994;6.552;2023-02-03T06:50:50;101916.75;;;8.31;86.05
76297;BME280;65104;52.994;6.552;2023-02-03T06:53:16;101928.41;;;8.26;86.13
76297;BME280;65104;52.994;6.552;2023-02-03T06:55:41;101934.56;;;8.29;85.74
76297;BME280;65104;52.994;6.552;2023-02-03T06:58:07;101930.47;;;8.33;85.88
76297;BME280;65104;52.994;6.552;2023-02-03T07:00:33;101938.94;;;8.32;85.78
76297;BME280;65104;52.994;6.552;2023-02-03T07:02:58;101952.41;;;8.28;86.24
76297;BME280;65104;52.994;6.552;2023-02-03T07:05:24;101940.25;;;8.24;86.40
76297;BME280;65104;52.994;6.552;2023-02-03T07:07:52;101946.31;;;8.26;86.86
76297;BME280;65104;52.994;6.552;2023-02-03T07:10:17;101950.63;;;8.27;85.72
76297;BME280;65104;52.994;6.552;2023-02-03T07:12:43;101957.34;;;8.25;86.29
76297;BME280;65104;52.994;6.552;2023-02-03T07:15:09;101964.22;;;8.26;86.03
76297;BME280;65104;52.994;6.552;2023-02-03T07:17:35;101962.28;;;8.20;87.59
76297;BME280;65104;52.994;6.552;2023-02-03T07:20:01;101968.22;;;8.02;89.60
76297;BME280;65104;52.994;6.552;2023-02-03T07:22:26;101981.22;;;7.88;91.46
76297;BME280;65104;52.994;6.552;2023-02-03T07:24:51;101986.28;;;7.87;91.19
76297;BME280;65104;52.994;6.552;2023-02-03T07:27:17;101976.91;;;7.87;91.18
76297;BME280;65104;52.994;6.552;2023-02-03T07:29:43;101999.63;;;7.81;90.83
76297;BME280;65104;52.994;6.552;2023-02-03T07:32:09;101973.44;;;7.85;91.10
76297;BME280;65104;52.994;6.552;2023-02-03T07:34:34;101993.09;;;7.86;89.85
76297;BME280;65104;52.994;6.552;2023-02-03T07:37:00;102006.00;;;7.89;90.76
76297;BME280;65104;52.994;6.552;2023-02-03T07:39:25;101994.81;;;7.87;90.94
76297;BME280;65104;52.994;6.552;2023-02-03T07:41:50;102008.28;;;7.83;91.34
76297;BME280;65104;52.994;6.552;2023-02-03T07:44:16;101997.88;;;7.80;92.26
76297;BME280;65104;52.994;6.552;2023-02-03T07:46:41;102000.34;;;7.79;91.51
76297;BME280;65104;52.994;6.552;2023-02-03T07:49:10;101995.19;;;7.77;91.58
76297;BME280;65104;52.994;6.552;2023-02-03T07:51:35;102000.31;;;7.77;92.89
76297;BME280;65104;52.994;6.552;2023-02-03T07:54:01;101996.78;;;7.75;93.15
76297;BME280;65104;52.994;6.552;2023-02-03T07:56:26;102005.09;;;7.71;93.05
76297;BME280;65104;52.994;6.552;2023-02-03T07:58:51;102005.34;;;7.76;92.95
76297;BME280;65104;52.994;6.552;2023-02-03T08:01:17;101975.53;;;7.76;93.10
76297;BME280;65104;52.994;6.552;2023-02-03T08:03:42;102008.88;;;7.78;92.88
76297;BME280;65104;52.994;6.552;2023-02-03T08:06:08;101996.13;;;7.79;92.91
76297;BME280;65104;52.994;6.552;2023-02-03T08:08:34;102007.22;;;7.98;91.29
76297;BME280;65104;52.994;6.552;2023-02-03T08:11:00;102014.78;;;7.95;91.74
76297;BME280;65104;52.994;6.552;2023-02-03T08:13:25;101996.13;;;7.97;91.24
76297;BME280;65104;52.994;6.552;2023-02-03T08:15:51;102002.47;;;8.05;90.60
76297;BME280;65104;52.994;6.552;2023-02-03T08:18:16;102003.34;;;8.06;91.00
76297;BME280;65104;52.994;6.552;2023-02-03T08:20:42;102017.19;;;8.09;91.17
76297;BME280;65104;52.994;6.552;2023-02-03T08:23:07;102023.03;;;8.07;90.81
76297;BME280;65104;52.994;6.552;2023-02-03T08:25:33;102012.50;;;8.01;91.42
76297;BME280;65104;52.994;6.552;2023-02-03T08:27:58;102028.66;;;8.00;91.28
76297;BME280;65104;52.994;6.552;2023-02-03T08:30:24;102040.44;;;7.96;92.06
76297;BME280;65104;52.994;6.552;2023-02-03T08:32:49;102036.16;;;7.97;92.72
76297;BME280;65104;52.994;6.552;2023-02-03T08:35:15;102028.22;;;7.90;93.71
76297;BME280;65104;52.994;6.552;2023-02-03T08:37:40;102040.19;;;7.91;93.25
76297;BME280;65104;52.994;6.552;2023-02-03T08:40:06;102034.94;;;7.88;93.74
76297;BME280;65104;52.994;6.552;2023-02-03T08:42:32;102050.34;;;7.90;93.68
76297;BME280;65104;52.994;6.552;2023-02-03T08:44:57;102051.38;;;7.94;92.97
76297;BME280;65104;52.994;6.552;2023-02-03T08:47:23;102050.59;;;7.95;93.52
76297;BME280;65104;52.994;6.552;2023-02-03T08:49:49;102056.34;;;7.90;93.78
76297;BME280;65104;52.994;6.552;2023-02-03T08:52:15;102058.03;;;7.90;94.03
76297;BME280;65104;52.994;6.552;2023-02-03T08:54:40;102050.44;;;7.91;93.79
76297;BME280;65104;52.994;6.552;2023-02-03T08:57:06;102055.63;;;7.93;94.20
76297;BME280;65104;52.994;6.552;2023-02-03T08:59:32;102062.50;;;7.94;94.31
76297;BME280;65104;52.994;6.552;2023-02-03T09:02:01;102066.06;;;7.98;93.07
76297;BME280;65104;52.994;6.552;2023-02-03T09:04:28;102067.69;;;7.96;93.91
76297;BME280;65104;52.994;6.552;2023-02-03T09:06:53;102073.75;;;7.98;93.67
76297;BME280;65104;52.994;6.552;2023-02-03T09:09:20;102066.94;;;7.98;93.43
76297;BME280;65104;52.994;6.552;2023-02-03T09:11:45;102064.38;;;7.98;94.00
76297;BME280;65104;52.994;6.552;2023-02-03T09:14:11;102050.78;;;7.99;93.72
76297;BME280;65104;52.994;6.552;2023-02-03T09:16:36;102066.22;;;8.01;93.46
76297;BME280;65104;52.994;6.552;2023-02-03T09:19:02;102071.25;;;7.99;92.98
76297;BME280;65104;52.994;6.552;2023-02-03T09:21:27;102082.44;;;8.01;93.36
76297;BME280;65104;52.994;6.552;2023-02-03T09:23:53;102071.50;;;8.04;93.26
76297;BME280;65104;52.994;6.552;2023-02-03T09:26:18;102074.19;;;8.07;93.04
76297;BME280;65104;52.994;6.552;2023-02-03T09:28:44;102108.63;;;8.13;92.06
76297;BME280;65104;52.994;6.552;2023-02-03T09:31:14;102082.81;;;8.09;92.06
76297;BME280;65104;52.994;6.552;2023-02-03T09:33:44;102104.53;;;8.17;92.28
76297;BME280;65104;52.994;6.552;2023-02-03T09:36:10;102112.06;;;8.14;91.74
76297;BME280;65104;52.994;6.552;2023-02-03T09:38:36;102109.66;;;8.17;92.19
76297;BME280;65104;52.994;6.552;2023-02-03T09:44:09;102109.81;;;8.20;91.54
76297;BME280;65104;52.994;6.552;2023-02-03T09:46:52;102127.00;;;8.22;91.13
76297;BME280;65104;52.994;6.552;2023-02-03T09:49:28;102133.00;;;8.23;91.46
76297;BME280;65104;52.994;6.552;2023-02-03T09:52:06;102142.47;;;8.25;91.29
76297;BME280;65104;52.994;6.552;2023-02-03T09:56:59;102135.19;;;8.33;91.03
76297;BME280;65104;52.994;6.552;2023-02-03T09:59:30;102138.16;;;8.41;90.38
76297;BME280;65104;52.994;6.552;2023-02-03T10:05:14;102147.00;;;8.47;89.60
76297;BME280;65104;52.994;6.552;2023-02-03T10:07:56;102161.69;;;8.51;89.58
76297;BME280;65104;52.994;6.552;2023-02-03T10:10:41;102153.72;;;8.45;89.75
76297;BME280;65104;52.994;6.552;2023-02-03T10:13:33;102155.63;;;8.49;88.91
76297;BME280;65104;52.994;6.552;2023-02-03T10:16:17;102170.16;;;8.50;89.35
76297;BME280;65104;52.994;6.552;2023-02-03T10:18:47;102177.91;;;8.52;88.93
76297;BME280;65104;52.994;6.552;2023-02-03T10:23:52;102191.84;;;8.57;88.15
76297;BME280;65104;52.994;6.552;2023-02-03T10:26:25;102195.28;;;8.57;89.20
76297;BME280;65104;52.994;6.552;2023-02-03T10:29:02;102185.09;;;8.59;88.79
76297;BME280;65104;52.994;6.552;2023-02-03T10:31:34;102201.78;;;8.69;87.45
76297;BME280;65104;52.994;6.552;2023-02-03T10:34:09;102190.00;;;8.72;85.98
76297;BME280;65104;52.994;6.552;2023-02-03T10:36:52;102203.84;;;8.76;85.65
76297;BME280;65104;52.994;6.552;2023-02-03T10:39:36;102214.09;;;8.76;86.17
76297;BME280;65104;52.994;6.552;2023-02-03T10:42:04;102222.25;;;8.69;86.07
76297;BME280;65104;52.994;6.552;2023-02-03T10:44:38;102224.03;;;8.70;85.38
76297;BME280;65104;52.994;6.552;2023-02-03T10:47:29;102215.84;;;8.77;84.54
76297;BME280;65104;52.994;6.552;2023-02-03T10:50:03;102212.09;;;8.88;83.89
76297;BME280;65104;52.994;6.552;2023-02-03T10:52:33;102201.69;;;9.02;84.02
76297;BME280;65104;52.994;6.552;2023-02-03T10:55:46;102189.00;;;9.06;83.50
76297;BME280;65104;52.994;6.552;2023-02-03T10:57:54;102206.16;;;8.89;83.86
76297;BME280;65104;52.994;6.552;2023-02-03T11:00:30;102207.19;;;8.92;83.01
76297;BME280;65104;52.994;6.552;2023-02-03T11:05:24;102226.00;;;8.93;83.13
76297;BME280;65104;52.994;6.552;2023-02-03T11:07:53;102216.19;;;9.02;83.06
76297;BME280;65104;52.994;6.552;2023-02-03T11:13:22;102247.59;;;8.98;82.64
76297;BME280;65104;52.994;6.552;2023-02-03T11:15:52;102242.19;;;8.92;82.58
76297;BME280;65104;52.994;6.552;2023-02-03T11:21:17;102246.00;;;8.82;80.50
76297;BME280;65104;52.994;6.552;2023-02-03T11:26:25;102238.75;;;8.91;80.59
76297;BME280;65104;52.994;6.552;2023-02-03T11:28:56;102242.25;;;9.11;79.15
76297;BME280;65104;52.994;6.552;2023-02-03T11:31:25;102239.72;;;9.13;79.20
76297;BME280;65104;52.994;6.552;2023-02-03T11:33:55;102239.69;;;9.11;78.42
76297;BME280;65104;52.994;6.552;2023-02-03T11:36:24;102245.97;;;9.00;78.71
76297;BME280;65104;52.994;6.552;2023-02-03T11:38:50;102234.41;;;9.08;78.21
76297;BME280;65104;52.994;6.552;2023-02-03T11:41:19;102232.91;;;9.31;77.42
76297;BME280;65104;52.994;6.552;2023-02-03T11:43:46;102231.84;;;9.45;76.26
76297;BME280;65104;52.994;6.552;2023-02-03T11:46:12;102251.91;;;9.54;77.22
76297;BME280;65104;52.994;6.552;2023-02-03T11:51:49;102250.28;;;9.19;76.17
76297;BME280;65104;52.994;6.552;2023-02-03T11:57:23;102258.72;;;8.81;76.49
76297;BME280;65104;52.994;6.552;2023-02-03T12:05:32;102280.00;;;8.80;77.19
76297;BME280;65104;52.994;6.552;2023-02-03T12:08:04;102281.25;;;8.88;77.31
76297;BME280;65104;52.994;6.552;2023-02-03T12:10:44;102286.53;;;8.91;76.67
76297;BME280;65104;52.994;6.552;2023-02-03T12:13:36;102280.81;;;8.96;75.92
76297;BME280;65104;52.994;6.552;2023-02-03T12:16:19;102279.94;;;8.96;75.51
76297;BME280;65104;52.994;6.552;2023-02-03T12:18:58;102293.06;;;9.02;74.16
76297;BME280;65104;52.994;6.552;2023-02-03T12:21:42;102292.97;;;9.00;74.77
76297;BME280;65104;52.994;6.552;2023-02-03T12:27:02;102306.84;;;8.70;75.03
76297;BME280;65104;52.994;6.552;2023-02-03T12:29:35;102297.63;;;8.56;75.42
76297;BME280;65104;52.994;6.552;2023-02-03T12:32:05;102301.06;;;8.56;74.30
76297;BME280;65104;52.994;6.552;2023-02-03T12:34:51;102306.94;;;8.72;74.81
76297;BME280;65104;52.994;6.552;2023-02-03T12:37:25;102308.88;;;8.59;73.92
76297;BME280;65104;52.994;6.552;2023-02-03T12:39:52;102312.56;;;8.64;73.60
76297;BME280;65104;52.994;6.552;2023-02-03T12:42:33;102296.69;;;8.72;74.85
76297;BME280;65104;52.994;6.552;2023-02-03T12:45:05;102306.84;;;8.70;73.73
76297;BME280;65104;52.994;6.552;2023-02-03T12:50:12;102318.88;;;8.55;74.43
76297;BME280;65104;52.994;6.552;2023-02-03T12:53:03;102308.56;;;8.53;75.72
76297;BME280;65104;52.994;6.552;2023-02-03T12:55:46;102318.00;;;8.54;73.49
76297;BME280;65104;52.994;6.552;2023-02-03T12:58:28;102311.94;;;8.52;74.16
76297;BME280;65104;52.994;6.552;2023-02-03T13:01:04;102313.84;;;8.56;72.31
76297;BME280;65104;52.994;6.552;2023-02-03T13:06:31;102316.91;;;8.49;72.84
76297;BME280;65104;52.994;6.552;2023-02-03T13:09:22;102317.53;;;8.45;72.60
76297;BME280;65104;52.994;6.552;2023-02-03T13:12:15;102318.72;;;8.52;73.26
76297;BME280;65104;52.994;6.552;2023-02-03T13:14:54;102320.41;;;8.51;71.96
76297;BME280;65104;52.994;6.552;2023-02-03T13:17:25;102333.28;;;8.53;72.70
76297;BME280;65104;52.994;6.552;2023-02-03T13:19:56;102338.00;;;8.61;71.29
76297;BME280;65104;52.994;6.552;2023-02-03T13:22:23;102329.44;;;8.61;71.35
76297;BME280;65104;52.994;6.552;2023-02-03T13:24:57;102328.72;;;8.63;71.48
76297;BME280;65104;52.994;6.552;2023-02-03T13:33:17;102347.44;;;8.96;72.46
76297;BME280;65104;52.994;6.552;2023-02-03T13:41:52;102362.38;;;9.05;73.80
76297;BME280;65104;52.994;6.552;2023-02-03T13:44:23;102356.06;;;8.98;73.37
76297;BME280;65104;52.994;6.552;2023-02-03T13:46:51;102351.84;;;9.34;71.66
76297;BME280;65104;52.994;6.552;2023-02-03T13:49:28;102363.41;;;9.09;69.76
76297;BME280;65104;52.994;6.552;2023-02-03T13:51:55;102369.66;;;8.80;69.02
76297;BME280;65104;52.994;6.552;2023-02-03T13:54:31;102344.69;;;8.76;68.29
76297;BME280;65104;52.994;6.552;2023-02-03T13:57:19;102350.66;;;8.58;68.41
76297;BME280;65104;52.994;6.552;2023-02-03T13:59:46;102365.84;;;8.55;68.58
76297;BME280;65104;52.994;6.552;2023-02-03T14:07:33;102377.22;;;8.44;70.24
76297;BME280;65104;52.994;6.552;2023-02-03T14:10:21;102384.00;;;8.44;69.30
76297;BME280;65104;52.994;6.552;2023-02-03T14:15:43;102388.13;;;8.40;70.33
76297;BME280;65104;52.994;6.552;2023-02-03T14:18:31;102381.06;;;8.36;70.21
76297;BME280;65104;52.994;6.552;2023-02-03T14:21:08;102396.78;;;8.27;70.37
76297;BME280;65104;52.994;6.552;2023-02-03T14:23:40;102397.00;;;8.16;70.14
76297;BME280;65104;52.994;6.552;2023-02-03T14:26:15;102391.34;;;8.21;70.57
76297;BME280;65104;52.994;6.552;2023-02-03T14:28:44;102415.88;;;8.18;70.93
76297;BME280;65104;52.994;6.552;2023-02-03T14:31:22;102409.97;;;8.19;71.35
76297;BME280;65104;52.994;6.552;2023-02-03T14:42:09;102427.56;;;8.13;68.83
76297;BME280;65104;52.994;6.552;2023-02-03T14:45:09;102429.63;;;8.04;69.91
76297;BME280;65104;52.994;6.552;2023-02-03T14:48:04;102426.09;;;8.02;69.90
76297;BME280;65104;52.994;6.552;2023-02-03T14:56:19;102427.94;;;8.04;69.57
76297;BME280;65104;52.994;6.552;2023-02-03T14:58:53;102412.75;;;8.07;69.25
76297;BME280;65104;52.994;6.552;2023-02-03T15:06:41;102428.09;;;8.07;68.27
76297;BME280;65104;52.994;6.552;2023-02-03T15:09:30;102427.22;;;8.07;68.76
76297;BME280;65104;52.994;6.552;2023-02-03T15:11:57;102427.94;;;8.04;68.68
76297;BME280;65104;52.994;6.552;2023-02-03T15:14:25;102427.59;;;7.98;69.68